Time;durP1;ratioP1;P1;durP2;ratioP2;P2;SDS_P1;SDS_P2;PMS_P1;PMS_P2;Temp;Humidity;BMP_temperature;BMP_pressure;BME280_temperature;BME280_humidity;BME280_pressure;Samples;Min_cycle;Max_cycle;Signal;HPM_P1;HPM_P2
2023/01/30 00:01:21;;;;;;;40.03;19.92;;;6.00;99.90;;;;;;5050039;28;20191;-79
2023/01/30 00:03:47;;;;;;;41.75;20.20;;;6.00;99.90;;;;;;5051929;28;20562;-79
2023/01/30 00:09:35;;;;;;;39.28;19.05;;;5.90;99.90;;;;;;5023375;28;20174;-78
2023/01/30 00:12:00;;;;;;;38.35;19.88;;;6.00;99.90;;;;;;5054214;28;20167;-80
2023/01/30 00:14:26;;;;;;;29.60;19.02;;;6.00;99.90;;;;;;5055656;28;20672;-79
2023/01/30 00:16:52;;;;;;;36.47;20.80;;;6.00;99.90;;;;;;5055152;28;20163;-80
2023/01/30 00:19:17;;;;;;;40.15;21.02;;;5.90;99.90;;;;;;5055214;28;20178;-80
2023/01/30 00:21:43;;;;;;;39.38;20.13;;;6.20;99.90;;;;;;5054759;28;20297;-79
2023/01/30 00:24:08;;;;;;;35.83;18.52;;;6.10;99.90;;;;;;5054971;28;20619;-78
2023/01/30 00:26:34;;;;;;;37.50;20.15;;;6.10;99.90;;;;;;5054941;28;20207;-79
2023/01/30 00:28:59;;;;;;;30.63;18.92;;;6.00;99.90;;;;;;5054843;28;20167;-79
2023/01/30 00:31:25;;;;;;;34.90;19.23;;;6.10;99.90;;;;;;5054713;28;20191;-79
2023/01/30 00:33:51;;;;;;;36.78;19.77;;;6.10;99.90;;;;;;5054694;28;20694;-78
2023/01/30 00:36:16;;;;;;;36.25;19.30;;;6.00;99.90;;;;;;5054683;28;20623;-78
2023/01/30 00:38:42;;;;;;;40.08;20.23;;;5.90;99.90;;;;;;5054612;28;20172;-78
2023/01/30 00:41:09;;;;;;;41.35;21.10;;;5.90;99.90;;;;;;5054963;28;20187;-78
2023/01/30 00:47:04;;;;;;;37.55;20.13;;;6.00;99.90;;;;;;5054576;28;20580;-79
2023/01/30 00:49:14;;;;;;;35.03;18.85;;;6.10;99.90;;;;;;5054489;28;20179;-79
2023/01/30 00:51:40;;;;;;;38.38;18.42;;;6.10;99.90;;;;;;5054343;28;20183;-78
2023/01/30 00:54:06;;;;;;;33.63;19.40;;;6.20;99.90;;;;;;5054352;28;20221;-79
2023/01/30 00:56:32;;;;;;;37.45;18.75;;;6.30;99.90;;;;;;5054214;28;20187;-79
2023/01/30 00:58:57;;;;;;;32.92;20.23;;;6.30;99.90;;;;;;5054334;28;20163;-79
2023/01/30 01:01:23;;;;;;;31.40;18.25;;;6.40;99.90;;;;;;5054183;28;20659;-78
2023/01/30 01:03:48;;;;;;;38.88;19.58;;;6.40;99.90;;;;;;5054351;28;20171;-78
2023/01/30 01:06:14;;;;;;;37.20;19.42;;;6.40;99.90;;;;;;5052944;28;20218;-79
2023/01/30 01:08:39;;;;;;;32.58;18.35;;;6.20;99.90;;;;;;5054309;28;20175;-78
2023/01/30 01:11:05;;;;;;;43.10;19.30;;;6.30;99.90;;;;;;5054247;28;20187;-79
2023/01/30 01:13:31;;;;;;;32.45;19.63;;;6.30;99.90;;;;;;5054351;28;20171;-78
2023/01/30 01:15:56;;;;;;;40.25;18.30;;;6.40;99.90;;;;;;5053962;28;20250;-78
2023/01/30 01:18:22;;;;;;;33.15;17.95;;;6.50;99.90;;;;;;5054276;28;20171;-78
2023/01/30 01:20:47;;;;;;;39.08;18.80;;;6.50;99.90;;;;;;5054539;28;20199;-78
2023/01/30 01:23:13;;;;;;;31.77;18.67;;;6.40;99.90;;;;;;5054159;28;20558;-78
2023/01/30 01:25:39;;;;;;;33.90;19.00;;;6.40;99.90;;;;;;5054351;28;20292;-79
2023/01/30 01:28:04;;;;;;;34.40;19.05;;;6.40;99.90;;;;;;5054733;28;20163;-78
2023/01/30 01:30:30;;;;;;;45.67;19.17;;;6.40;99.90;;;;;;5053921;28;20201;-79
2023/01/30 01:32:56;;;;;;;32.67;17.80;;;6.30;99.90;;;;;;5054191;28;20191;-79
2023/01/30 01:35:22;;;;;;;33.47;18.35;;;6.40;99.90;;;;;;5053811;28;20178;-78
2023/01/30 01:37:51;;;;;;;34.38;18.23;;;6.40;99.90;;;;;;5054033;28;20180;-79
2023/01/30 01:43:18;;;;;;;29.73;16.98;;;6.50;99.90;;;;;;5054051;28;20586;-78
2023/01/30 01:45:45;;;;;;;34.33;16.92;;;6.50;99.90;;;;;;5053750;28;20210;-79
2023/01/30 01:48:21;;;;;;;30.27;17.50;;;6.50;99.90;;;;;;5053747;28;20564;-79
2023/01/30 01:51:00;;;;;;;38.70;17.65;;;6.50;99.90;;;;;;5053308;28;20607;-79
2023/01/30 01:53:32;;;;;;;28.40;16.85;;;6.50;99.90;;;;;;5053465;28;20665;-79
2023/01/30 01:56:01;;;;;;;33.85;17.45;;;6.50;99.90;;;;;;5053366;28;20172;-78
2023/01/30 01:58:33;;;;;;;28.90;16.48;;;6.60;99.90;;;;;;5053263;28;20667;-78
2023/01/30 02:01:00;;;;;;;24.05;14.90;;;6.60;99.90;;;;;;5053383;28;20655;-78
2023/01/30 02:03:29;;;;;;;31.30;16.73;;;6.70;99.90;;;;;;5059194;28;20231;-79
2023/01/30 02:05:59;;;;;;;25.17;15.80;;;6.70;99.90;;;;;;5056333;28;20195;-79
2023/01/30 02:08:34;;;;;;;29.48;16.45;;;6.70;99.90;;;;;;5053421;28;20522;-79
2023/01/30 02:11:21;;;;;;;28.30;16.38;;;6.60;99.90;;;;;;5056423;28;20190;-78
2023/01/30 02:13:49;;;;;;;25.50;14.80;;;6.70;99.90;;;;;;5058843;28;20170;-78
2023/01/30 02:16:14;;;;;;;24.70;15.65;;;6.80;99.90;;;;;;5059897;28;20174;-79
2023/01/30 02:18:42;;;;;;;20.27;14.43;;;6.90;99.90;;;;;;5055835;28;20521;-79
2023/01/30 02:21:35;;;;;;;34.90;16.05;;;7.00;99.90;;;;;;5057481;28;20572;-79
2023/01/30 02:24:31;;;;;;;27.95;15.90;;;7.00;99.90;;;;;;5057717;28;20542;-78
2023/01/30 02:27:08;;;;;;;24.10;15.27;;;7.00;99.90;;;;;;5055988;28;20562;-80
2023/01/30 02:29:52;;;;;;;22.48;13.93;;;6.90;99.90;;;;;;5058684;28;20188;-79
2023/01/30 02:32:50;;;;;;;25.15;14.32;;;6.80;99.90;;;;;;5056557;28;20175;-79
2023/01/30 02:35:35;;;;;;;27.15;14.75;;;6.90;99.90;;;;;;5013983;28;20186;-78
2023/01/30 02:38:26;;;;;;;26.92;15.18;;;7.00;99.90;;;;;;5058768;28;20163;-78
2023/01/30 02:41:22;;;;;;;28.00;14.65;;;7.00;99.90;;;;;;5030167;28;20199;-78
2023/01/30 02:44:02;;;;;;;38.25;15.27;;;7.10;99.90;;;;;;5054724;28;20258;-78
2023/01/30 02:46:50;;;;;;;21.48;14.13;;;7.10;99.90;;;;;;5055530;28;20210;-79
2023/01/30 02:49:25;;;;;;;34.28;14.60;;;7.00;99.90;;;;;;5056811;28;20191;-79
2023/01/30 02:51:53;;;;;;;32.05;13.95;;;7.00;99.90;;;;;;5052678;28;20681;-79
2023/01/30 02:54:19;;;;;;;26.75;14.52;;;7.00;99.90;;;;;;5052411;28;20253;-79
2023/01/30 02:56:48;;;;;;;30.38;14.40;;;7.10;99.90;;;;;;5052719;28;20247;-78
2023/01/30 02:59:18;;;;;;;26.65;15.48;;;7.10;99.90;;;;;;5052692;28;20174;-78
2023/01/30 03:02:04;;;;;;;24.33;14.70;;;7.10;99.90;;;;;;5052307;28;20191;-78
2023/01/30 03:05:06;;;;;;;21.73;14.13;;;7.10;99.90;;;;;;5052113;28;20623;-79
2023/01/30 03:07:41;;;;;;;24.30;12.77;;;7.10;99.90;;;;;;5048109;28;20193;-79
2023/01/30 03:10:16;;;;;;;25.35;14.32;;;7.20;99.90;;;;;;5050541;28;20273;-78
2023/01/30 03:13:05;;;;;;;25.38;14.38;;;7.30;99.90;;;;;;5052534;28;20255;-79
2023/01/30 03:15:43;;;;;;;25.13;13.00;;;7.30;99.90;;;;;;5052112;28;20170;-79
2023/01/30 03:18:09;;;;;;;23.45;14.50;;;7.30;99.90;;;;;;5052253;28;20166;-79
2023/01/30 03:20:37;;;;;;;25.50;14.52;;;7.40;99.90;;;;;;5051768;28;20209;-79
2023/01/30 03:23:03;;;;;;;24.10;13.48;;;7.50;99.90;;;;;;5050844;28;20171;-79
2023/01/30 03:25:29;;;;;;;27.67;13.70;;;7.50;99.90;;;;;;5051975;28;20678;-78
2023/01/30 03:27:56;;;;;;;23.77;13.27;;;7.50;99.90;;;;;;5052214;28;20167;-79
2023/01/30 03:30:24;;;;;;;23.70;12.85;;;7.50;99.90;;;;;;5052078;28;20198;-78
2023/01/30 03:32:50;;;;;;;22.70;14.10;;;7.40;99.90;;;;;;5052032;28;20163;-79
2023/01/30 03:35:16;;;;;;;17.63;11.85;;;7.40;99.90;;;;;;5051948;28;20179;-78
2023/01/30 03:37:43;;;;;;;35.47;13.77;;;7.40;99.90;;;;;;5052465;28;20225;-78
2023/01/30 03:40:10;;;;;;;18.25;12.40;;;7.50;99.90;;;;;;5055865;28;20310;-79
2023/01/30 03:42:36;;;;;;;31.15;11.98;;;7.50;99.90;;;;;;5054761;28;20265;-79
2023/01/30 03:45:01;;;;;;;19.08;11.40;;;7.50;99.90;;;;;;5055704;28;20277;-79
2023/01/30 03:47:27;;;;;;;18.90;11.73;;;7.60;99.90;;;;;;5055775;28;20167;-78
2023/01/30 03:49:53;;;;;;;23.00;11.35;;;7.70;99.90;;;;;;5055605;28;20198;-78
2023/01/30 03:52:19;;;;;;;14.65;10.27;;;7.60;99.90;;;;;;5055448;28;20171;-79
2023/01/30 03:54:44;;;;;;;15.70;10.75;;;7.50;99.90;;;;;;5055696;28;20167;-79
2023/01/30 03:57:10;;;;;;;22.77;11.40;;;7.50;99.90;;;;;;5055876;28;20163;-79
2023/01/30 03:59:35;;;;;;;23.52;10.98;;;7.40;99.90;;;;;;5055425;28;20176;-79
2023/01/30 04:02:01;;;;;;;22.77;11.10;;;7.40;99.90;;;;;;5055486;28;20589;-78
2023/01/30 04:04:26;;;;;;;16.55;10.27;;;7.50;99.90;;;;;;5055100;28;20182;-79
2023/01/30 04:06:52;;;;;;;12.75;10.73;;;7.60;99.90;;;;;;5055493;28;20597;-79
2023/01/30 04:09:18;;;;;;;17.98;11.35;;;7.50;99.90;;;;;;5055284;28;20163;-78
2023/01/30 04:11:43;;;;;;;30.65;11.43;;;7.40;99.90;;;;;;5054851;28;20536;-78
2023/01/30 04:14:09;;;;;;;21.20;11.10;;;7.40;99.90;;;;;;5054975;28;20209;-79
2023/01/30 04:16:35;;;;;;;21.50;10.93;;;7.40;99.90;;;;;;5055145;28;20174;-78
2023/01/30 04:19:00;;;;;;;14.77;10.50;;;7.40;99.90;;;;;;5055443;28;20521;-79
2023/01/30 04:21:26;;;;;;;15.32;10.90;;;7.40;99.90;;;;;;5053588;28;20245;-79
2023/01/30 04:23:51;;;;;;;17.52;11.93;;;7.30;99.90;;;;;;5055173;28;20171;-78
2023/01/30 04:26:17;;;;;;;17.30;10.75;;;7.40;99.90;;;;;;5055078;28;20289;-79
2023/01/30 04:28:43;;;;;;;17.35;11.77;;;7.60;99.90;;;;;;5055072;28;20163;-78
2023/01/30 04:31:09;;;;;;;16.45;10.60;;;7.60;99.90;;;;;;5054695;28;20195;-79
2023/01/30 04:33:35;;;;;;;13.65;9.50;;;7.60;99.90;;;;;;5054759;28;20217;-78
2023/01/30 04:36:03;;;;;;;17.98;11.35;;;7.60;99.90;;;;;;5054518;28;20171;-79
2023/01/30 04:38:30;;;;;;;22.38;10.75;;;7.50;99.90;;;;;;5054729;28;20245;-78
2023/01/30 04:40:56;;;;;;;21.35;10.68;;;7.50;99.90;;;;;;5054695;28;20194;-78
2023/01/30 04:43:23;;;;;;;16.75;9.73;;;7.50;99.90;;;;;;5054414;28;20613;-78
2023/01/30 04:45:50;;;;;;;15.68;10.45;;;7.60;99.90;;;;;;5054251;28;20203;-78
2023/01/30 04:48:17;;;;;;;20.05;9.50;;;7.60;99.90;;;;;;5054475;28;20174;-78
2023/01/30 04:50:46;;;;;;;16.65;10.48;;;7.60;99.90;;;;;;5053550;28;20667;-78
2023/01/30 04:53:12;;;;;;;20.92;10.50;;;7.70;99.90;;;;;;5054477;28;20160;-78
2023/01/30 04:55:38;;;;;;;24.48;10.43;;;7.70;99.90;;;;;;5054107;28;20186;-77
2023/01/30 04:58:03;;;;;;;16.80;10.00;;;7.70;99.90;;;;;;5054287;28;20329;-78
2023/01/30 05:00:29;;;;;;;22.42;9.85;;;7.80;99.90;;;;;;5054244;28;20597;-78
2023/01/30 05:02:55;;;;;;;16.05;9.60;;;7.80;99.90;;;;;;5054451;28;20166;-78
2023/01/30 05:05:22;;;;;;;18.88;9.55;;;7.70;99.90;;;;;;5054159;28;20336;-78
2023/01/30 05:07:48;;;;;;;22.95;9.43;;;7.70;99.90;;;;;;5053866;28;20167;-78
2023/01/30 05:10:14;;;;;;;20.48;9.57;;;7.70;99.90;;;;;;5053964;28;20202;-78
2023/01/30 05:12:40;;;;;;;18.55;8.48;;;7.80;99.90;;;;;;5052390;28;20259;-78
2023/01/30 05:15:06;;;;;;;15.07;8.40;;;7.70;99.90;;;;;;5054196;28;20254;-80
2023/01/30 05:17:33;;;;;;;16.90;10.00;;;7.70;99.90;;;;;;5053769;28;20237;-79
2023/01/30 05:19:58;;;;;;;16.85;9.02;;;7.70;99.90;;;;;;5054128;28;20203;-79
2023/01/30 05:22:24;;;;;;;18.42;8.82;;;7.80;99.90;;;;;;5053962;28;20175;-79
2023/01/30 05:24:50;;;;;;;13.68;8.00;;;7.80;99.90;;;;;;5053694;28;20724;-78
2023/01/30 05:27:16;;;;;;;14.60;8.00;;;7.80;99.90;;;;;;5053834;28;20175;-79
2023/01/30 05:29:42;;;;;;;20.63;8.52;;;7.90;99.90;;;;;;5052432;28;20212;-78
2023/01/30 05:32:11;;;;;;;20.27;7.80;;;8.00;99.90;;;;;;5053535;28;20179;-78
2023/01/30 05:34:37;;;;;;;15.75;7.57;;;8.00;99.90;;;;;;5053375;28;20164;-79
2023/01/30 05:37:02;;;;;;;18.33;7.30;;;7.80;99.90;;;;;;5052118;28;20690;-79
2023/01/30 05:39:28;;;;;;;10.30;7.22;;;7.70;99.90;;;;;;5053247;28;20178;-79
2023/01/30 05:41:54;;;;;;;12.85;7.03;;;7.70;99.90;;;;;;5053455;28;20266;-79
2023/01/30 05:44:19;;;;;;;13.50;7.43;;;7.70;99.90;;;;;;5053275;28;20631;-79
2023/01/30 05:46:45;;;;;;;17.42;7.78;;;7.70;99.90;;;;;;5053015;28;20211;-79
2023/01/30 05:49:10;;;;;;;9.65;7.07;;;7.70;99.90;;;;;;5053163;28;20167;-79
2023/01/30 05:51:36;;;;;;;14.25;6.57;;;7.70;99.90;;;;;;5052937;28;20186;-79
2023/01/30 05:54:01;;;;;;;13.25;7.65;;;7.80;99.90;;;;;;5053144;28;20242;-79
2023/01/30 05:56:27;;;;;;;9.65;6.55;;;7.80;99.90;;;;;;5052866;28;20164;-79
2023/01/30 05:58:54;;;;;;;12.50;6.28;;;7.80;99.90;;;;;;5051910;28;20167;-79
2023/01/30 06:01:21;;;;;;;9.05;6.03;;;7.90;99.90;;;;;;5052002;28;20547;-79
2023/01/30 06:03:47;;;;;;;18.33;6.32;;;7.90;99.90;;;;;;5052728;28;20179;-79
2023/01/30 06:06:12;;;;;;;13.52;5.93;;;7.80;99.90;;;;;;5052501;28;20206;-78
2023/01/30 06:08:38;;;;;;;15.27;6.35;;;7.80;99.90;;;;;;5052825;28;20633;-79
2023/01/30 06:11:07;;;;;;;13.50;6.32;;;7.80;99.90;;;;;;5052615;28;20191;-79
2023/01/30 06:13:32;;;;;;;14.85;6.45;;;7.90;99.90;;;;;;5052977;28;20581;-79
2023/01/30 06:15:58;;;;;;;11.07;6.07;;;8.00;99.90;;;;;;5052555;28;20612;-79
2023/01/30 06:18:24;;;;;;;13.82;5.45;;;8.00;99.90;;;;;;5052775;28;20208;-79
2023/01/30 06:20:51;;;;;;;11.50;5.97;;;8.10;99.90;;;;;;5052425;28;20696;-79
2023/01/30 06:23:17;;;;;;;9.10;5.10;;;8.10;99.90;;;;;;5052498;28;20163;-79
2023/01/30 06:25:44;;;;;;;13.50;5.90;;;8.10;99.90;;;;;;5052651;28;20291;-79
2023/01/30 06:28:10;;;;;;;14.80;5.68;;;8.00;99.90;;;;;;5052823;28;20221;-79
2023/01/30 06:30:35;;;;;;;16.90;5.78;;;8.00;99.90;;;;;;5052220;28;20191;-79
2023/01/30 06:33:01;;;;;;;13.35;5.97;;;8.10;99.90;;;;;;5052506;28;20643;-79
2023/01/30 06:35:26;;;;;;;11.85;5.93;;;8.00;99.90;;;;;;5052070;28;20167;-79
2023/01/30 06:37:52;;;;;;;11.98;5.63;;;8.10;99.90;;;;;;5052340;28;20255;-79
2023/01/30 06:40:18;;;;;;;9.95;5.45;;;8.10;99.90;;;;;;5051983;28;20329;-79
2023/01/30 06:42:47;;;;;;;10.25;5.35;;;8.00;99.90;;;;;;5052586;28;20171;-79
2023/01/30 06:45:14;;;;;;;6.57;5.07;;;8.00;99.90;;;;;;5050806;28;20653;-80
2023/01/30 06:47:44;;;;;;;12.82;5.68;;;8.00;99.90;;;;;;5052233;28;20170;-80
2023/01/30 06:50:10;;;;;;;7.22;5.65;;;8.00;99.90;;;;;;5051804;28;20202;-78
2023/01/30 06:52:40;;;;;;;11.50;6.07;;;8.00;99.90;;;;;;5052320;28;20168;-79
2023/01/30 06:55:06;;;;;;;10.02;6.05;;;8.10;99.90;;;;;;5052248;28;20159;-79
2023/01/30 06:57:32;;;;;;;11.13;5.10;;;8.10;99.90;;;;;;5052101;28;20210;-80
2023/01/30 06:59:57;;;;;;;13.35;5.38;;;8.20;99.90;;;;;;5052112;28;20214;-79
2023/01/30 07:02:23;;;;;;;10.43;5.03;;;8.20;99.90;;;;;;5051748;28;20295;-79
2023/01/30 07:04:48;;;;;;;13.35;5.97;;;8.20;99.90;;;;;;5051796;28;20186;-85
2023/01/30 07:07:14;;;;;;;10.65;6.22;;;8.20;99.90;;;;;;5051846;28;20183;-80
2023/01/30 07:09:39;;;;;;;8.70;4.47;;;8.20;99.90;;;;;;5051706;28;20246;-79
2023/01/30 07:12:05;;;;;;;10.73;5.38;;;8.20;99.90;;;;;;5051821;28;20162;-79
2023/01/30 07:14:31;;;;;;;10.05;5.05;;;8.20;99.90;;;;;;5055499;28;20167;-79
2023/01/30 07:16:56;;;;;;;15.32;5.82;;;8.20;99.90;;;;;;5056213;28;20619;-79
2023/01/30 07:19:22;;;;;;;8.50;4.78;;;8.30;99.90;;;;;;5054958;28;20518;-79
2023/01/30 07:21:47;;;;;;;14.23;5.60;;;8.30;99.90;;;;;;5055888;28;20201;-80
2023/01/30 07:24:13;;;;;;;6.25;5.03;;;8.30;99.90;;;;;;5056290;28;20163;-79
2023/01/30 07:26:38;;;;;;;11.85;5.15;;;8.30;99.90;;;;;;5055833;28;20233;-80
2023/01/30 07:29:04;;;;;;;14.90;4.88;;;8.40;99.90;;;;;;5055732;28;20194;-79
2023/01/30 07:31:30;;;;;;;17.15;5.22;;;8.30;99.90;;;;;;5055826;28;20183;-81
2023/01/30 07:33:55;;;;;;;8.35;5.43;;;8.40;99.90;;;;;;5049674;28;20186;-83
2023/01/30 07:36:21;;;;;;;8.80;4.38;;;8.40;99.90;;;;;;5053285;28;20224;-79
2023/01/30 07:38:49;;;;;;;8.00;4.28;;;8.50;99.90;;;;;;5062765;28;20155;-81
2023/01/30 07:41:15;;;;;;;16.27;4.72;;;8.60;99.90;;;;;;5063910;28;20198;-79
2023/01/30 07:43:41;;;;;;;17.42;4.90;;;8.60;99.90;;;;;;5053317;28;20179;-79
2023/01/30 07:46:06;;;;;;;20.10;4.97;;;8.60;99.90;;;;;;5054288;28;20558;-80
2023/01/30 07:48:32;;;;;;;10.52;4.55;;;8.50;99.90;;;;;;5055474;28;20187;-80
2023/01/30 07:50:57;;;;;;;14.45;4.60;;;8.40;99.90;;;;;;5055285;28;20195;-80
2023/01/30 07:53:23;;;;;;;25.55;4.68;;;8.30;99.90;;;;;;5051933;28;20175;-80
2023/01/30 07:55:49;;;;;;;4.78;2.95;;;8.30;99.90;;;;;;5053414;28;20522;-79
2023/01/30 07:58:15;;;;;;;12.98;4.25;;;8.20;99.90;;;;;;5054732;28;20171;-79
2023/01/30 08:00:41;;;;;;;11.15;3.05;;;8.10;99.90;;;;;;5055437;28;20647;-78
2023/01/30 08:03:11;;;;;;;10.27;2.95;;;8.10;99.90;;;;;;5054229;28;20214;-80
2023/01/30 08:05:37;;;;;;;5.72;2.58;;;8.00;99.90;;;;;;5054234;28;20203;-80
2023/01/30 08:08:03;;;;;;;9.43;2.97;;;8.00;99.90;;;;;;5053279;28;20171;-81
2023/01/30 08:10:28;;;;;;;10.60;3.55;;;8.10;99.90;;;;;;5053205;28;20198;-79
2023/01/30 08:12:54;;;;;;;18.25;3.38;;;8.10;99.90;;;;;;5051789;28;20171;-81
2023/01/30 08:15:20;;;;;;;10.73;2.75;;;8.10;99.90;;;;;;5054250;28;20250;-80
2023/01/30 08:17:56;;;;;;;10.20;2.45;;;8.00;99.90;;;;;;5054621;28;20253;-82
2023/01/30 08:20:22;;;;;;;10.00;3.05;;;8.00;99.90;;;;;;5054623;28;20285;-80
2023/01/30 08:22:47;;;;;;;25.60;3.50;;;8.00;99.90;;;;;;5052905;28;20162;-80
2023/01/30 08:25:13;;;;;;;11.88;3.28;;;8.00;99.90;;;;;;5052721;28;20207;-79
2023/01/30 08:27:39;;;;;;;11.85;4.20;;;8.10;99.90;;;;;;5052245;28;20174;-78
2023/01/30 08:30:05;;;;;;;12.73;3.97;;;8.00;99.90;;;;;;5054120;28;20195;-82
2023/01/30 08:32:30;;;;;;;22.05;3.80;;;7.90;99.90;;;;;;5052567;28;20179;-76
2023/01/30 08:34:56;;;;;;;6.70;2.67;;;7.90;99.90;;;;;;5053428;28;20529;-79
2023/01/30 08:37:22;;;;;;;13.95;2.40;;;8.00;99.90;;;;;;5053950;28;20174;-82
2023/01/30 08:39:47;;;;;;;9.32;3.60;;;7.90;99.90;;;;;;5054125;28;20199;-79
2023/01/30 08:42:13;;;;;;;10.95;3.35;;;7.90;99.90;;;;;;5053982;28;20530;-79
2023/01/30 08:44:39;;;;;;;15.70;2.78;;;7.90;99.90;;;;;;5053482;28;20171;-78
2023/01/30 08:47:04;;;;;;;14.88;2.50;;;7.90;99.90;;;;;;5053432;28;20187;-76
2023/01/30 08:49:30;;;;;;;8.73;2.53;;;7.90;99.90;;;;;;5053803;28;20163;-77
2023/01/30 08:51:55;;;;;;;5.53;2.33;;;7.90;99.90;;;;;;5053202;28;20210;-78
2023/01/30 08:54:21;;;;;;;8.52;2.55;;;7.90;99.90;;;;;;5053253;28;20167;-77
2023/01/30 08:56:46;;;;;;;11.15;2.50;;;7.90;99.90;;;;;;5053132;28;20175;-77
2023/01/30 08:59:12;;;;;;;11.23;2.28;;;7.90;99.90;;;;;;5053667;28;20163;-75
2023/01/30 09:01:38;;;;;;;13.88;2.80;;;8.00;99.90;;;;;;5053265;28;20187;-76
2023/01/30 09:04:04;;;;;;;10.88;2.58;;;7.90;99.90;;;;;;5052048;28;20244;-79
2023/01/30 09:06:29;;;;;;;11.63;2.58;;;7.90;99.90;;;;;;5053412;28;20219;-80
2023/01/30 09:08:55;;;;;;;17.88;2.05;;;7.90;99.90;;;;;;5053676;28;20159;-80
2023/01/30 09:11:20;;;;;;;11.73;2.45;;;7.90;99.90;;;;;;5051953;28;20716;-83
2023/01/30 09:13:46;;;;;;;9.70;2.05;;;7.90;99.90;;;;;;5052413;28;20247;-82
2023/01/30 09:16:12;;;;;;;8.57;2.28;;;8.00;99.90;;;;;;5052635;28;20182;-81
2023/01/30 09:18:40;;;;;;;7.05;2.03;;;7.90;99.90;;;;;;5052596;28;20163;-82
2023/01/30 09:21:06;;;;;;;8.57;2.28;;;8.00;99.90;;;;;;5050884;28;20234;-78
2023/01/30 09:23:35;;;;;;;13.43;2.50;;;8.00;99.90;;;;;;5051114;28;20179;-81
2023/01/30 09:26:01;;;;;;;8.68;2.08;;;8.00;99.90;;;;;;5051767;28;20242;-78
2023/01/30 09:28:27;;;;;;;10.55;2.35;;;8.10;99.90;;;;;;5053816;28;20164;-79
2023/01/30 09:30:56;;;;;;;14.63;2.42;;;8.10;99.90;;;;;;5053634;28;20534;-81
2023/01/30 09:33:25;;;;;;;15.88;2.28;;;8.10;99.90;;;;;;5050991;28;20174;-83
2023/01/30 09:35:51;;;;;;;12.38;2.30;;;8.10;99.90;;;;;;5052582;28;20179;-80
2023/01/30 09:38:17;;;;;;;8.48;1.77;;;8.10;99.90;;;;;;5053315;28;20170;-79
2023/01/30 09:40:56;;;;;;;19.40;2.88;;;8.10;99.90;;;;;;5053437;28;20198;-80
2023/01/30 09:43:59;;;;;;;11.85;2.42;;;8.20;99.90;;;;;;5051472;28;20190;-81
2023/01/30 09:46:33;;;;;;;19.80;2.75;;;8.20;99.90;;;;;;5052718;28;20210;-78
2023/01/30 09:49:14;;;;;;;13.73;2.70;;;8.20;99.90;;;;;;5052515;28;20174;-82
2023/01/30 09:51:48;;;;;;;5.70;1.90;;;8.20;99.90;;;;;;5052892;28;20195;-80
2023/01/30 09:54:20;;;;;;;15.35;1.92;;;8.20;99.90;;;;;;5052942;28;20166;-81
2023/01/30 09:57:14;;;;;;;9.68;2.00;;;8.30;99.90;;;;;;5052710;28;20574;-80
2023/01/30 09:59:54;;;;;;;8.82;1.83;;;8.30;99.90;;;;;;5032826;28;20659;-82
2023/01/30 10:02:44;;;;;;;10.15;1.63;;;8.30;99.90;;;;;;5032822;28;20310;-79
2023/01/30 10:05:10;;;;;;;15.80;2.30;;;8.30;99.90;;;;;;5047170;28;20218;-78
2023/01/30 10:08:08;;;;;;;8.73;1.75;;;8.40;99.90;;;;;;5052816;28;20163;-79
2023/01/30 10:10:42;;;;;;;13.90;1.88;;;8.40;99.90;;;;;;5038646;28;20218;-81
2023/01/30 10:13:41;;;;;;;16.30;2.15;;;8.40;99.90;;;;;;5052193;28;20216;-80
2023/01/30 10:16:31;;;;;;;15.32;2.53;;;8.50;99.90;;;;;;5032546;28;20638;-79
2023/01/30 10:19:44;;;;;;;28.50;3.10;;;8.50;99.90;;;;;;5032267;28;20164;-79
2023/01/30 10:22:33;;;;;;;14.45;2.00;;;8.50;99.90;;;;;;5010310;28;20192;-80
2023/01/30 10:25:20;;;;;;;12.48;2.40;;;8.60;99.90;;;;;;5044577;28;20714;-79
2023/01/30 10:28:02;;;;;;;11.48;1.88;;;8.60;99.90;;;;;;5052341;28;20175;-80
2023/01/30 10:30:27;;;;;;;25.08;3.38;;;8.60;99.90;;;;;;5051953;28;20211;-80
2023/01/30 10:33:14;;;;;;;15.27;2.47;;;8.60;99.90;;;;;;5051908;28;20222;-84
2023/01/30 10:35:42;;;;;;;15.15;2.35;;;8.60;99.90;;;;;;5049950;28;20230;-79
2023/01/30 10:38:25;;;;;;;16.23;2.05;;;8.70;99.90;;;;;;5052623;28;20165;-80
2023/01/30 10:41:18;;;;;;;15.20;2.53;;;8.90;99.90;;;;;;5050412;28;20240;-79
2023/01/30 10:44:08;;;;;;;13.13;2.38;;;8.80;99.90;;;;;;5051755;28;20167;-82
2023/01/30 10:47:01;;;;;;;10.30;2.20;;;8.80;99.90;;;;;;5050792;28;20221;-79
2023/01/30 10:49:40;;;;;;;16.02;3.55;;;8.70;99.90;;;;;;5052214;28;20518;-80
2023/01/30 10:52:41;;;;;;;16.58;3.53;;;8.70;99.90;;;;;;5052150;28;20212;-79
2023/01/30 10:55:26;;;;;;;21.15;2.15;;;8.80;99.90;;;;;;5053235;28;20183;-79
2023/01/30 10:58:05;;;;;;;12.80;2.00;;;8.80;99.90;;;;;;5052584;28;20178;-84
2023/01/30 11:00:57;;;;;;;11.48;2.13;;;8.90;99.90;;;;;;5052313;28;20658;-81
2023/01/30 11:03:26;;;;;;;8.02;1.77;;;9.20;99.90;;;;;;5052348;28;20229;-82
2023/01/30 11:05:58;;;;;;;13.27;1.90;;;9.40;99.90;;;;;;5052179;28;20209;-79
2023/01/30 11:08:27;;;;;;;17.85;2.42;;;9.40;99.90;;;;;;5052494;28;20205;-83
2023/01/30 11:10:55;;;;;;;8.85;1.90;;;9.50;99.90;;;;;;5052627;28;20191;-85
2023/01/30 11:13:29;;;;;;;18.60;1.33;;;9.40;99.90;;;;;;5051987;28;20170;-79
2023/01/30 11:16:04;;;;;;;14.18;1.80;;;9.50;99.90;;;;;;5052197;28;20174;-83
2023/01/30 11:18:29;;;;;;;11.10;1.70;;;9.60;99.90;;;;;;5052485;28;20533;-79
2023/01/30 11:21:03;;;;;;;6.93;1.77;;;9.60;99.90;;;;;;5052667;28;20674;-79
2023/01/30 11:23:38;;;;;;;7.10;1.67;;;9.50;99.90;;;;;;5051989;28;20174;-81
2023/01/30 11:26:03;;;;;;;26.85;3.17;;;9.50;99.90;;;;;;5052373;28;20210;-84
2023/01/30 11:28:45;;;;;;;24.63;2.97;;;9.60;99.90;;;;;;5051790;28;20652;-80
2023/01/30 11:31:16;;;;;;;9.60;2.53;;;9.50;99.90;;;;;;5050573;28;20191;-79
2023/01/30 11:33:41;;;;;;;12.35;1.73;;;9.50;99.90;;;;;;5051320;28;20174;-84
2023/01/30 11:36:24;;;;;;;17.48;2.65;;;9.50;99.90;;;;;;5052069;28;20513;-87
2023/01/30 11:39:02;;;;;;;14.00;3.03;;;9.50;99.90;;;;;;5052185;28;20254;-79
2023/01/30 11:41:29;;;;;;;10.05;1.92;;;9.60;99.90;;;;;;5051594;28;20228;-79
2023/01/30 11:44:02;;;;;;;22.65;2.65;;;9.60;99.90;;;;;;5051753;28;20526;-82
2023/01/30 11:46:35;;;;;;;10.60;2.30;;;9.80;99.90;;;;;;5051879;28;20283;-80
2023/01/30 11:49:05;;;;;;;15.57;1.98;;;9.80;99.90;;;;;;5051787;28;20175;-80
2023/01/30 11:51:35;;;;;;;16.25;3.10;;;9.90;99.90;;;;;;5051674;28;20187;-81
2023/01/30 11:54:11;;;;;;;13.00;2.05;;;9.80;99.90;;;;;;5039315;28;20207;-86
2023/01/30 11:56:51;;;;;;;15.20;1.95;;;9.80;99.90;;;;;;5050732;28;20196;-80
2023/01/30 11:59:25;;;;;;;21.45;2.45;;;9.80;99.90;;;;;;5070290;28;20238;-85
2023/01/30 12:02:00;;;;;;;7.07;1.65;;;9.70;99.90;;;;;;5071834;28;20293;-82
2023/01/30 12:04:27;;;;;;;6.68;1.75;;;9.70;99.90;;;;;;5073843;28;20262;-79
2023/01/30 12:07:06;;;;;;;12.98;1.92;;;9.60;99.90;;;;;;5065930;28;20306;-78
2023/01/30 12:09:36;;;;;;;17.23;2.17;;;9.60;99.90;;;;;;5054245;28;20167;-79
2023/01/30 12:12:23;;;;;;;16.55;3.05;;;9.60;99.90;;;;;;5053895;28;20171;-81
2023/01/30 12:14:52;;;;;;;12.05;1.70;;;9.60;99.90;;;;;;5053635;28;20639;-79
2023/01/30 12:17:41;;;;;;;15.15;2.00;;;9.60;99.90;;;;;;5051535;28;20179;-80
2023/01/30 12:20:15;;;;;;;11.45;1.73;;;9.70;99.90;;;;;;5049236;28;20215;-78
2023/01/30 12:22:50;;;;;;;7.90;1.92;;;9.70;99.90;;;;;;5052472;28;20163;-81
2023/01/30 12:25:31;;;;;;;17.15;2.65;;;9.60;99.90;;;;;;5056198;28;20197;-79
2023/01/30 12:28:13;;;;;;;9.98;1.77;;;9.60;99.90;;;;;;5056265;28;20681;-77
2023/01/30 12:30:48;;;;;;;8.00;2.28;;;9.40;99.90;;;;;;5060287;28;20182;-79
2023/01/30 12:33:15;;;;;;;13.52;2.28;;;9.40;99.90;;;;;;5073939;28;20208;-77
2023/01/30 12:35:48;;;;;;;9.52;2.08;;;9.60;99.90;;;;;;5073549;28;20170;-77
2023/01/30 12:38:40;;;;;;;19.55;2.67;;;9.60;99.90;;;;;;5054186;28;20221;-79
2023/01/30 12:41:30;;;;;;;7.63;1.77;;;9.70;99.90;;;;;;5052598;28;20547;-79
2023/01/30 12:44:21;;;;;;;9.93;1.75;;;9.70;99.90;;;;;;5054343;28;20182;-82
2023/01/30 12:46:47;;;;;;;18.55;2.22;;;9.50;99.90;;;;;;5052598;28;20225;-77
2023/01/30 12:49:30;;;;;;;5.43;2.00;;;9.40;99.90;;;;;;5053742;28;20159;-77
2023/01/30 12:52:26;;;;;;;7.40;2.00;;;9.30;99.90;;;;;;5053640;28;20187;-78
2023/01/30 12:55:14;;;;;;;8.85;1.38;;;9.50;99.90;;;;;;5053952;28;20198;-78
2023/01/30 12:57:58;;;;;;;14.25;2.50;;;9.50;99.90;;;;;;5053720;28;20167;-81
2023/01/30 13:00:35;;;;;;;18.05;2.13;;;9.60;99.90;;;;;;5053641;28;20187;-78
2023/01/30 13:03:10;;;;;;;23.23;2.13;;;9.50;99.90;;;;;;5054429;28;20167;-80
2023/01/30 13:06:05;;;;;;;14.20;2.40;;;9.40;99.90;;;;;;5054192;28;20678;-82
2023/01/30 13:08:43;;;;;;;7.57;1.75;;;9.40;99.90;;;;;;5053029;28;20186;-81
2023/01/30 13:11:31;;;;;;;15.70;2.92;;;9.50;99.90;;;;;;5052871;28;20618;-79
2023/01/30 13:14:08;;;;;;;10.73;1.92;;;9.50;99.90;;;;;;5053663;28;20178;-78